createdAt,value
2018-11-25T00:04:41.675Z,6.24
2018-11-25T00:09:24.616Z,6.19
2018-11-25T00:14:08.801Z,6.22
2018-11-25T00:18:51.680Z,6.14
2018-11-25T00:23:34.747Z,6.38
2018-11-25T00:28:17.580Z,6.27
2018-11-25T00:33:00.555Z,6.34
2018-11-25T00:37:48.099Z,6.18
2018-11-25T00:42:26.575Z,6.27
2018-11-25T00:47:09.472Z,6.17
2018-11-25T00:51:52.545Z,6.00
2018-11-25T00:56:35.439Z,6.14
2018-11-25T01:01:18.548Z,6.11
2018-11-25T01:06:01.424Z,6.08
2018-11-25T01:10:44.377Z,6.18
2018-11-25T01:15:27.271Z,6.06
2018-11-25T01:20:12.128Z,6.05
2018-11-25T01:24:55.039Z,6.09
2018-11-25T01:29:37.942Z,6.06
2018-11-25T01:34:20.811Z,6.02
2018-11-25T01:39:04.069Z,5.99
2018-11-25T01:43:48.144Z,6.07
2018-11-25T01:48:30.986Z,6.10
2018-11-25T01:53:13.899Z,6.05
2018-11-25T01:57:56.772Z,5.98
2018-11-25T02:02:39.933Z,5.98
2018-11-25T02:07:22.779Z,5.99
2018-11-25T02:12:05.836Z,6.15
2018-11-25T02:16:48.706Z,6.11
2018-11-25T02:21:31.685Z,6.24
2018-11-25T02:26:14.555Z,6.15
2018-11-25T02:30:58.471Z,6.07
2018-11-25T02:35:41.348Z,6.10
2018-11-25T02:40:24.244Z,6.11
2018-11-25T02:45:11.104Z,6.13
2018-11-25T02:49:56.212Z,6.16
2018-11-25T02:54:39.088Z,5.99
2018-11-25T02:59:21.944Z,6.21
2018-11-25T03:04:04.893Z,6.03
2018-11-25T03:08:47.794Z,6.14
2018-11-25T03:13:32.206Z,6.18
2018-11-25T03:18:15.079Z,6.12
2018-11-25T03:22:58.486Z,6.07
2018-11-25T03:27:41.324Z,5.91
2018-11-25T03:32:24.405Z,5.72
2018-11-25T03:37:07.287Z,5.99
2018-11-25T03:41:50.172Z,6.03
2018-11-25T03:46:33.045Z,5.96
2018-11-25T03:51:17.998Z,5.66
2018-11-25T03:56:00.931Z,5.50
2018-11-25T04:00:44.030Z,5.90
2018-11-25T04:05:26.906Z,5.80
2018-11-25T04:10:12.980Z,5.82
2018-11-25T04:14:55.865Z,5.59
2018-11-25T04:19:39.912Z,5.69
2018-11-25T04:24:22.735Z,5.62
2018-11-25T04:29:07.694Z,5.62
2018-11-25T04:33:50.988Z,5.58
2018-11-25T04:38:34.130Z,5.56
2018-11-25T04:43:17.741Z,5.59
2018-11-25T04:48:00.630Z,5.68
2018-11-25T04:52:44.279Z,5.65
2018-11-25T04:57:27.144Z,5.73
2018-11-25T05:02:10.179Z,5.66
2018-11-25T05:06:53.346Z,5.53
2018-11-25T05:11:36.679Z,5.63
2018-11-25T05:16:19.559Z,5.82
2018-11-25T05:21:02.529Z,5.81
2018-11-25T05:25:45.431Z,5.68
2018-11-25T05:30:29.605Z,5.88
2018-11-25T05:35:13.627Z,5.89
2018-11-25T05:39:57.589Z,5.74
2018-11-25T05:44:40.445Z,5.46
2018-11-25T05:49:24.347Z,5.67
2018-11-25T05:54:07.272Z,5.83
2018-11-25T05:58:52.202Z,5.86
2018-11-25T06:03:35.099Z,5.81
2018-11-25T06:08:17.972Z,5.88
2018-11-25T06:13:00.931Z,5.87
2018-11-25T06:17:43.895Z,5.90
2018-11-25T06:22:26.907Z,5.98
2018-11-25T06:27:09.799Z,6.02
2018-11-25T06:31:52.909Z,5.97
2018-11-25T06:36:35.840Z,6.10
2018-11-25T06:41:18.935Z,6.16
2018-11-25T06:46:01.995Z,6.22
2018-11-25T06:50:46.960Z,6.30
2018-11-25T06:55:29.889Z,6.64
2018-11-25T07:00:15.182Z,6.68
2018-11-25T07:04:58.081Z,7.01
2018-11-25T07:09:41.053Z,6.81
2018-11-25T07:14:23.960Z,6.87
2018-11-25T07:19:06.863Z,7.12
2018-11-25T07:23:49.807Z,7.18
2018-11-25T07:28:32.757Z,7.25
2018-11-25T07:33:15.664Z,7.43
2018-11-25T07:37:58.559Z,7.08
2018-11-25T07:42:41.489Z,7.66
2018-11-25T07:47:24.359Z,8.12
2018-11-25T07:52:07.301Z,7.71
2018-11-25T07:56:50.161Z,8.48
2018-11-25T08:01:35.118Z,8.41
2018-11-25T08:06:18.258Z,8.56
2018-11-25T08:11:01.995Z,8.87
2018-11-25T08:15:44.855Z,8.42
2018-11-25T08:20:27.892Z,8.30
2018-11-25T08:25:14.771Z,8.76
2018-11-25T08:29:58.791Z,9.04
2018-11-25T08:34:41.675Z,8.77
2018-11-25T08:39:25.588Z,8.41
2018-11-25T08:44:08.488Z,8.68
2018-11-25T08:48:53.392Z,8.85
2018-11-25T08:53:36.303Z,8.89
2018-11-25T08:58:20.251Z,8.73
2018-11-25T09:03:03.127Z,8.69
2018-11-25T09:07:46.043Z,8.79
2018-11-25T09:12:29.117Z,9.89
2018-11-25T09:17:11.989Z,10.22
2018-11-25T09:21:56.154Z,9.48
2018-11-25T09:26:39.056Z,9.69
2018-11-25T09:31:22.165Z,10.70
2018-11-25T09:36:05.134Z,9.83
2018-11-25T09:40:48.170Z,10.30
2018-11-25T09:45:31.109Z,10.45
2018-11-25T09:50:21.347Z,9.89
2018-11-25T09:55:04.975Z,9.55
2018-11-25T09:59:48.895Z,10.86
2018-11-25T10:04:36.211Z,10.72
2018-11-25T10:09:21.367Z,11.60
2018-11-25T10:14:04.665Z,10.32
2018-11-25T10:18:48.677Z,11.32
2018-11-25T10:23:34.066Z,10.64
2018-11-25T10:28:17.007Z,10.11
2018-11-25T10:33:01.535Z,10.76
2018-11-25T10:37:45.517Z,10.85
2018-11-25T10:42:28.492Z,11.96
2018-11-25T10:47:11.411Z,11.67
2018-11-25T10:51:54.464Z,12.00
2018-11-25T10:56:37.315Z,11.47
2018-11-25T11:01:26.687Z,12.45
2018-11-25T11:06:14.933Z,11.64
2018-11-25T11:10:58.026Z,11.50
2018-11-25T11:15:41.144Z,11.37
2018-11-25T11:20:25.094Z,12.12
2018-11-25T11:25:08.918Z,11.54
2018-11-25T11:29:52.863Z,12.07
2018-11-25T11:34:35.735Z,12.88
2018-11-25T11:45:35.603Z,12.55
2018-11-25T11:50:20.882Z,13.02
2018-11-25T11:55:04.265Z,13.32
2018-11-25T11:59:48.858Z,13.35
2018-11-25T12:04:31.729Z,13.02
2018-11-25T12:09:14.795Z,13.23
2018-11-25T12:13:57.753Z,12.61
2018-11-25T12:18:40.999Z,13.37
2018-11-25T12:23:23.932Z,13.02
2018-11-25T12:28:08.074Z,13.19
2018-11-25T12:32:52.671Z,13.18
2018-11-25T12:37:36.161Z,13.07
2018-11-25T12:42:18.809Z,13.15
2018-11-25T12:47:01.685Z,12.92
2018-11-25T12:51:44.903Z,12.73
2018-11-25T12:56:27.822Z,12.56
2018-11-25T13:01:10.984Z,12.51
2018-11-25T13:05:54.010Z,12.34
2018-11-25T13:10:38.177Z,12.35
2018-11-25T13:15:21.098Z,12.21
2018-11-25T13:20:06.635Z,12.14
2018-11-25T13:24:49.508Z,12.02
2018-11-25T13:29:33.490Z,12.12
2018-11-25T13:34:16.398Z,11.91
2018-11-25T13:39:01.304Z,11.85
2018-11-25T13:43:44.232Z,11.86
2018-11-25T13:48:27.327Z,11.82
2018-11-25T13:53:10.209Z,11.84
2018-11-25T13:57:56.701Z,11.64
2018-11-25T14:02:40.185Z,11.82
2018-11-25T14:07:23.592Z,11.95
2018-11-25T14:12:06.646Z,11.81
2018-11-25T14:16:49.585Z,11.67
2018-11-25T14:21:32.665Z,11.54
2018-11-25T14:26:20.008Z,11.68
2018-11-25T14:31:04.184Z,11.59
2018-11-25T14:35:47.109Z,11.65
2018-11-25T14:40:31.139Z,11.50
2018-11-25T14:45:19.877Z,11.57
2018-11-25T14:50:03.499Z,11.51
2018-11-25T14:54:51.162Z,11.47
2018-11-25T14:59:31.100Z,11.43
2018-11-25T15:04:14.018Z,11.36
2018-11-25T15:08:58.151Z,11.33
2018-11-25T15:13:41.036Z,11.38
2018-11-25T15:18:25.191Z,11.24
2018-11-25T15:23:10.470Z,11.24
2018-11-25T15:27:53.627Z,11.27
2018-11-25T15:32:36.548Z,11.16
2018-11-25T15:37:19.454Z,11.05
2018-11-25T15:42:02.351Z,11.20
2018-11-25T15:46:45.230Z,11.23
2018-11-25T15:51:28.185Z,11.10
2018-11-25T15:56:11.172Z,11.00
2018-11-25T16:00:56.912Z,10.93
2018-11-25T16:05:42.320Z,11.06
2018-11-25T16:10:26.446Z,11.08
2018-11-25T16:15:11.948Z,10.98
2018-11-25T16:19:54.911Z,10.90
2018-11-25T16:24:37.813Z,10.78
2018-11-25T16:29:24.395Z,10.89
2018-11-25T16:34:07.255Z,10.79
2018-11-25T16:38:51.587Z,10.68
2018-11-25T16:43:34.435Z,10.50
2018-11-25T16:48:17.323Z,10.53
2018-11-25T16:53:00.221Z,10.69
2018-11-25T16:57:44.004Z,10.73
2018-11-25T17:02:26.859Z,10.79
2018-11-25T17:07:09.913Z,10.63
2018-11-25T17:11:52.862Z,10.66
2018-11-25T17:16:36.747Z,10.70
2018-11-25T17:21:20.390Z,10.57
2018-11-25T17:26:03.313Z,10.26
2018-11-25T17:30:46.421Z,10.27
2018-11-25T17:35:31.075Z,10.15
2018-11-25T17:40:14.565Z,10.22
2018-11-25T17:45:00.233Z,10.12
2018-11-25T17:49:43.317Z,9.90
2018-11-25T17:54:26.809Z,9.74
2018-11-25T17:59:09.851Z,9.58
2018-11-25T18:03:52.778Z,9.69
2018-11-25T18:08:36.908Z,9.63
2018-11-25T18:14:50.850Z,9.54
2018-11-25T18:19:33.964Z,9.57
2018-11-25T18:24:16.911Z,9.32
2018-11-25T18:29:00.083Z,9.29
2018-11-25T18:33:43.048Z,9.25
2018-11-25T18:38:27.065Z,9.11
2018-11-25T18:43:09.988Z,9.19
2018-11-25T18:47:53.439Z,9.12
2018-11-25T18:52:36.338Z,9.43
2018-11-25T18:57:25.548Z,9.57
2018-11-25T19:02:51.482Z,9.17
2018-11-25T19:07:40.512Z,8.91
2018-11-25T19:12:28.569Z,9.04
2018-11-25T19:17:13.927Z,9.10
2018-11-25T19:21:56.803Z,9.14
2018-11-25T19:26:42.766Z,9.19
2018-11-25T19:31:25.661Z,9.31
2018-11-25T19:36:08.621Z,9.10
2018-11-25T19:40:51.694Z,9.08
2018-11-25T19:45:35.117Z,8.90
2018-11-25T19:50:29.360Z,8.80
2018-11-25T19:55:13.387Z,8.72
2018-11-25T19:59:56.590Z,8.64
2018-11-25T20:04:39.489Z,8.67
2018-11-25T20:09:23.404Z,8.76
2018-11-25T20:14:06.399Z,8.67
2018-11-25T20:18:50.364Z,8.60
2018-11-25T20:23:33.323Z,8.60
2018-11-25T20:28:16.377Z,8.57
2018-11-25T20:33:04.724Z,8.45
2018-11-25T20:37:53.244Z,8.72
2018-11-25T20:42:36.239Z,8.59
2018-11-25T20:47:19.447Z,8.58
2018-11-25T20:52:07.927Z,8.49
2018-11-25T20:56:51.034Z,8.72
2018-11-25T21:01:34.907Z,8.87
2018-11-25T21:06:17.865Z,8.78
2018-11-25T21:11:00.979Z,8.84
2018-11-25T21:15:43.957Z,8.71
2018-11-25T21:20:27.019Z,8.60
2018-11-25T21:25:13.853Z,8.76
2018-11-25T21:29:56.894Z,8.70
2018-11-25T21:34:39.809Z,8.71
2018-11-25T21:39:23.248Z,8.71
2018-11-25T21:44:06.763Z,8.85
2018-11-25T21:48:50.756Z,8.97
2018-11-25T21:53:33.676Z,9.00
2018-11-25T21:58:17.335Z,9.03
2018-11-25T22:03:00.274Z,9.04
2018-11-25T22:07:44.333Z,9.29
2018-11-25T22:12:27.222Z,8.96
2018-11-25T22:17:10.292Z,9.06
2018-11-25T22:21:53.211Z,9.11
2018-11-25T22:26:36.938Z,8.81
2018-11-25T22:31:19.880Z,9.21
2018-11-25T22:36:02.731Z,9.19
2018-11-25T22:40:45.775Z,9.27
2018-11-25T22:45:28.643Z,9.19
2018-11-25T22:50:13.779Z,9.17
2018-11-25T22:54:56.648Z,9.19
2018-11-25T22:59:39.550Z,9.19
2018-11-25T23:04:33.408Z,9.14
2018-11-25T23:09:17.384Z,9.18
2018-11-25T23:14:00.259Z,9.17
2018-11-25T23:18:44.191Z,9.39
2018-11-25T23:23:27.094Z,9.30
2018-11-25T23:28:10.179Z,9.34
2018-11-25T23:32:53.060Z,9.40
2018-11-25T23:37:36.979Z,9.35
2018-11-25T23:42:19.875Z,9.33
2018-11-25T23:47:02.987Z,9.43
2018-11-25T23:51:45.869Z,9.46
2018-11-25T23:56:28.779Z,9.56
